Wetterdaten: Woche 17.07.17 - 23.07.17 (KW29)
Datum Zeit Temp. A. Pool Temp. Feuchte A. Luftdruck Regen Wind Richtung Sonnenschein ET UV Solar Taupunkt Windchill Windben Empfang
17.07.2017 00:00 15,0 C 21,7 C 72 % 1021,8 hPa 0,0 l/m 4,8 km/h (1 Bft) S 0,00 h 0,000 mm 0,0 UV-I 0 W/m 10,0 C 15,0 C 7,5 km/h (2 Bft) 97,38 %
17.07.2017 01:00 14,2 C 21,7 C 75 % 1021,6 hPa 0,0 l/m 4,2 km/h (1 Bft) S 0,00 h 0,025 mm 0,0 UV-I 0 W/m 9,8 C 14,2 C 6,8 km/h (2 Bft) 93,93 %
17.07.2017 02:00 13,6 C 21,2 C 77 % 1021,4 hPa 0,0 l/m 5,5 km/h (1 Bft) S-SW 0,00 h 0,026 mm 0,0 UV-I 0 W/m 9,6 C 13,5 C 9,0 km/h (2 Bft) 96,96 %
17.07.2017 03:00 13,3 C 21,1 C 77 % 1021,2 hPa 0,0 l/m 4,0 km/h (1 Bft) S-SW 0,00 h 0,025 mm 0,0 UV-I 0 W/m 9,3 C 13,3 C 7,4 km/h (2 Bft) 96,35 %
17.07.2017 04:00 12,9 C 21,1 C 78 % 1021,0 hPa 0,0 l/m 1,3 km/h (1 Bft) S-SW 0,00 h 0,026 mm 0,0 UV-I 0 W/m 9,1 C 12,9 C 2,6 km/h (1 Bft) 96,54 %
17.07.2017 05:00 11,5 C 21,1 C 84 % 1021,2 hPa 0,0 l/m 1,9 km/h (1 Bft) S-SW 0,30 h 0,000 mm 0,0 UV-I 17 W/m 8,9 C 11,5 C 3,0 km/h (1 Bft) 94,50 %
17.07.2017 06:00 12,5 C 21,1 C 83 % 1021,3 hPa 0,0 l/m 1,0 km/h (0 Bft) S-SW 0,77 h 0,025 mm 0,0 UV-I 120 W/m 9,7 C 12,5 C 2,4 km/h (1 Bft) 97,16 %
17.07.2017 07:00 15,9 C 21,1 C 70 % 1021,4 hPa 0,0 l/m 1,7 km/h (1 Bft) SO 0,80 h 0,051 mm 0,7 UV-I 249 W/m 10,4 C 15,9 C 3,6 km/h (1 Bft) 95,69 %
17.07.2017 08:00 18,1 C 21,1 C 61 % 1021,5 hPa 0,0 l/m 2,0 km/h (1 Bft) W 1,00 h 0,152 mm 1,4 UV-I 436 W/m 10,3 C 18,1 C 3,8 km/h (1 Bft) 95,97 %
17.07.2017 09:00 20,2 C 21,1 C 55 % 1021,3 hPa 0,0 l/m 1,9 km/h (1 Bft) NO 1,00 h 0,254 mm 2,7 UV-I 591 W/m 10,8 C 20,2 C 4,3 km/h (1 Bft) 96,87 %
17.07.2017 10:00 22,3 C 21,6 C 47 % 1020,9 hPa 0,0 l/m 2,5 km/h (1 Bft) N-NO 1,00 h 0,356 mm 4,1 UV-I 721 W/m 10,4 C 22,3 C 5,2 km/h (1 Bft) 97,08 %
17.07.2017 11:00 23,8 C 21,7 C 42 % 1020,5 hPa 0,0 l/m 3,3 km/h (1 Bft) S-SO 1,00 h 0,457 mm 5,5 UV-I 833 W/m 10,1 C 23,8 C 7,2 km/h (2 Bft) 93,86 %
17.07.2017 12:00 25,2 C 22,2 C 39 % 1020,0 hPa 0,0 l/m 4,6 km/h (1 Bft) O-SO 1,00 h 0,533 mm 6,0 UV-I 882 W/m 10,2 C 25,0 C 8,7 km/h (2 Bft) 95,30 %
17.07.2017 13:00 25,8 C 22,5 C 39 % 1019,6 hPa 0,0 l/m 5,9 km/h (2 Bft) NO 1,00 h 0,585 mm 6,3 UV-I 881 W/m 10,7 C 25,6 C 11,5 km/h (2 Bft) 95,56 %
17.07.2017 14:00 26,2 C 22,8 C 38 % 1019,2 hPa 0,0 l/m 5,1 km/h (1 Bft) S 0,97 h 0,609 mm 5,5 UV-I 814 W/m 10,8 C 26,2 C 9,9 km/h (2 Bft) 98,18 %
17.07.2017 15:00 27,3 C 23,3 C 37 % 1018,7 hPa 0,0 l/m 5,3 km/h (1 Bft) O-NO 1,00 h 0,559 mm 4,5 UV-I 753 W/m 11,2 C 27,1 C 10,5 km/h (2 Bft) 95,91 %
17.07.2017 16:00 28,0 C 23,3 C 36 % 1018,4 hPa 0,0 l/m 5,3 km/h (1 Bft) NO 1,00 h 0,533 mm 3,1 UV-I 661 W/m 11,6 C 27,9 C 10,1 km/h (2 Bft) 96,66 %
17.07.2017 17:00 27,7 C 23,8 C 37 % 1018,1 hPa 0,0 l/m 2,5 km/h (1 Bft) N-NO 0,70 h 0,483 mm 1,6 UV-I 430 W/m 11,5 C 27,7 C 6,2 km/h (2 Bft) 97,09 %
17.07.2017 18:00 26,2 C 23,9 C 41 % 1017,9 hPa 0,0 l/m 3,2 km/h (1 Bft) N-NO 0,43 h 0,305 mm 0,7 UV-I 198 W/m 11,9 C 26,2 C 7,4 km/h (2 Bft) 96,37 %
17.07.2017 19:00 25,3 C 23,9 C 45 % 1018,0 hPa 0,0 l/m 2,6 km/h (1 Bft) N-NW 0,47 h 0,178 mm 0,0 UV-I 111 W/m 12,4 C 25,3 C 6,6 km/h (2 Bft) 95,93 %
17.07.2017 20:00 23,8 C 23,3 C 53 % 1018,1 hPa 0,0 l/m 0,2 km/h (0 Bft) N 0,37 h 0,101 mm 0,0 UV-I 26 W/m 13,5 C 23,8 C 1,3 km/h (1 Bft) 97,14 %
17.07.2017 21:00 22,4 C 23,3 C 61 % 1018,4 hPa 0,0 l/m 1,1 km/h (1 Bft) O 0,00 h 0,026 mm 0,0 UV-I 4 W/m 14,5 C 22,4 C 2,4 km/h (1 Bft) 98,37 %
17.07.2017 22:00 20,4 C 23,3 C 68 % 1018,5 hPa 0,0 l/m 1,4 km/h (1 Bft) O 0,00 h 0,025 mm 0,0 UV-I 0 W/m 14,3 C 20,4 C 2,0 km/h (1 Bft) 96,26 %
17.07.2017 23:00 19,0 C 23,3 C 72 % 1018,6 hPa 0,0 l/m 3,4 km/h (1 Bft) SO 0,00 h 0,025 mm 0,0 UV-I 0 W/m 14,0 C 19,0 C 4,7 km/h (1 Bft) 96,53 %
18.07.2017 00:00 18,0 C 23,3 C 76 % 1018,6 hPa 0,0 l/m 2,3 km/h (1 Bft) S-SO 0,00 h 0,000 mm 0,0 UV-I 0 W/m 13,7 C 18,0 C 4,2 km/h (1 Bft) 96,99 %
18.07.2017 01:00 17,2 C 23,1 C 79 % 1018,6 hPa 0,0 l/m 1,2 km/h (1 Bft) S 0,00 h 0,025 mm 0,0 UV-I 0 W/m 13,5 C 17,2 C 2,6 km/h (1 Bft) 97,78 %
18.07.2017 02:00 16,1 C 22,8 C 83 % 1018,5 hPa 0,0 l/m 2,5 km/h (1 Bft) S 0,00 h 0,000 mm 0,0 UV-I 0 W/m 13,2 C 16,1 C 3,8 km/h (1 Bft) 95,33 %
18.07.2017 03:00 15,4 C 22,8 C 84 % 1018,4 hPa 0,0 l/m 1,8 km/h (1 Bft) S 0,00 h 0,000 mm 0,0 UV-I 0 W/m 12,7 C 15,4 C 3,1 km/h (1 Bft) 97,53 %
18.07.2017 04:00 14,5 C 22,8 C 87 % 1018,3 hPa 0,0 l/m 0,8 km/h (0 Bft) S 0,00 h 0,000 mm 0,0 UV-I 0 W/m 12,4 C 14,5 C 1,8 km/h (1 Bft) 96,91 %
18.07.2017 05:00 14,1 C 22,8 C 88 % 1018,2 hPa 0,0 l/m 0,1 km/h (0 Bft) S 0,30 h 0,000 mm 0,0 UV-I 16 W/m 12,1 C 14,1 C 0,6 km/h (0 Bft) 96,93 %
18.07.2017 06:00 14,7 C 22,8 C 87 % 1018,3 hPa 0,0 l/m 0,0 km/h (0 Bft) N 0,70 h 0,000 mm 0,0 UV-I 95 W/m 12,7 C 14,7 C 0,1 km/h (0 Bft) 94,89 %
18.07.2017 07:00 17,5 C 22,8 C 80 % 1018,2 hPa 0,0 l/m 2,1 km/h (1 Bft) NO 1,00 h 0,051 mm 0,7 UV-I 255 W/m 14,0 C 17,5 C 3,8 km/h (1 Bft) 96,24 %
18.07.2017 08:00 20,1 C 22,8 C 71 % 1018,0 hPa 0,0 l/m 4,3 km/h (1 Bft) NO 1,00 h 0,153 mm 1,4 UV-I 426 W/m 14,6 C 20,0 C 7,5 km/h (2 Bft) 95,49 %
18.07.2017 09:00 22,4 C 22,8 C 63 % 1017,7 hPa 0,0 l/m 8,1 km/h (2 Bft) NO 1,00 h 0,279 mm 2,7 UV-I 584 W/m 15,0 C 21,8 C 13,3 km/h (3 Bft) 94,10 %
18.07.2017 10:00 24,5 C 23,1 C 56 % 1017,3 hPa 0,0 l/m 8,0 km/h (2 Bft) NO 1,00 h 0,406 mm 4,2 UV-I 718 W/m 15,1 C 24,1 C 14,5 km/h (3 Bft) 96,03 %
18.07.2017 11:00 26,5 C 23,3 C 49 % 1016,9 hPa 0,0 l/m 9,7 km/h (2 Bft) O-NO 1,00 h 0,508 mm 5,5 UV-I 810 W/m 14,8 C 25,9 C 16,7 km/h (3 Bft) 97,77 %
18.07.2017 12:00 27,7 C 23,5 C 44 % 1016,4 hPa 0,0 l/m 8,2 km/h (2 Bft) O-NO 1,00 h 0,610 mm 6,3 UV-I 870 W/m 14,2 C 27,4 C 15,0 km/h (3 Bft) 96,26 %
18.07.2017 13:00 28,6 C 23,9 C 39 % 1015,9 hPa 0,0 l/m 6,6 km/h (2 Bft) O-NO 1,00 h 0,635 mm 6,4 UV-I 878 W/m 13,3 C 28,4 C 12,6 km/h (3 Bft) 95,80 %
18.07.2017 14:00 29,8 C 24,3 C 35 % 1015,4 hPa 0,0 l/m 5,7 km/h (1 Bft) N-NO 1,00 h 0,635 mm 5,8 UV-I 835 W/m 12,6 C 29,7 C 10,5 km/h (2 Bft) 96,07 %
18.07.2017 15:00 30,2 C 24,6 C 35 % 1014,8 hPa 0,0 l/m 3,9 km/h (1 Bft) NO 1,00 h 0,610 mm 4,6 UV-I 744 W/m 12,8 C 30,2 C 7,9 km/h (2 Bft) 97,67 %
18.07.2017 16:00 30,8 C 25,0 C 33 % 1014,0 hPa 0,0 l/m 4,3 km/h (1 Bft) N-NW 1,00 h 0,533 mm 3,2 UV-I 620 W/m 12,8 C 30,8 C 9,5 km/h (2 Bft) 95,36 %
18.07.2017 17:00 30,8 C 25,0 C 33 % 1013,4 hPa 0,0 l/m 4,8 km/h (1 Bft) O-NO 1,00 h 0,483 mm 1,8 UV-I 464 W/m 12,5 C 30,8 C 8,7 km/h (2 Bft) 97,58 %
18.07.2017 18:00 30,5 C 25,0 C 35 % 1012,9 hPa 0,0 l/m 5,1 km/h (1 Bft) O-NO 1,00 h 0,381 mm 0,8 UV-I 288 W/m 13,4 C 30,5 C 9,5 km/h (2 Bft) 95,99 %
18.07.2017 19:00 29,1 C 25,0 C 41 % 1013,0 hPa 0,0 l/m 7,6 km/h (2 Bft) O-NO 0,23 h 0,254 mm 0,0 UV-I 99 W/m 14,4 C 28,9 C 12,0 km/h (2 Bft) 95,19 %
18.07.2017 20:00 26,8 C 25,0 C 48 % 1013,2 hPa 0,0 l/m 3,3 km/h (1 Bft) O-NO 0,30 h 0,152 mm 0,0 UV-I 32 W/m 14,9 C 26,8 C 5,2 km/h (1 Bft) 97,10 %
18.07.2017 21:00 25,3 C 25,0 C 52 % 1013,3 hPa 0,0 l/m 3,9 km/h (1 Bft) O-NO 0,00 h 0,051 mm 0,0 UV-I 6 W/m 14,8 C 25,3 C 5,6 km/h (1 Bft) 96,11 %
18.07.2017 22:00 23,6 C 25,0 C 60 % 1013,3 hPa 0,0 l/m 2,1 km/h (1 Bft) S-SW 0,00 h 0,051 mm 0,0 UV-I 0 W/m 15,4 C 23,6 C 4,0 km/h (1 Bft) 95,66 %
18.07.2017 23:00 22,7 C 25,0 C 65 % 1013,3 hPa 0,0 l/m 2,2 km/h (1 Bft) S-SW 0,00 h 0,025 mm 0,0 UV-I 0 W/m 15,8 C 22,7 C 3,7 km/h (1 Bft) 95,58 %
19.07.2017 00:00 21,5 C 24,7 C 68 % 1013,4 hPa 0,0 l/m 0,8 km/h (0 Bft) SW 0,00 h 0,000 mm 0,0 UV-I 0 W/m 15,4 C 21,5 C 2,1 km/h (1 Bft) 97,08 %
19.07.2017 01:00 20,4 C 24,4 C 71 % 1013,6 hPa 0,0 l/m 1,5 km/h (1 Bft) S-SW 0,00 h 0,025 mm 0,0 UV-I 0 W/m 15,1 C 20,4 C 2,9 km/h (1 Bft) 96,18 %
19.07.2017 02:00 20,1 C 24,4 C 70 % 1013,3 hPa 0,0 l/m 2,1 km/h (1 Bft) SW 0,00 h 0,026 mm 0,0 UV-I 0 W/m 14,5 C 20,1 C 3,9 km/h (1 Bft) 95,24 %
19.07.2017 03:00 19,1 C 24,4 C 73 % 1012,8 hPa 0,0 l/m 2,6 km/h (1 Bft) SW 0,00 h 0,025 mm 0,0 UV-I 0 W/m 14,2 C 19,1 C 4,5 km/h (1 Bft) 95,70 %
19.07.2017 04:00 18,1 C 24,4 C 78 % 1012,8 hPa 0,0 l/m 2,4 km/h (1 Bft) S-SW 0,00 h 0,026 mm 0,0 UV-I 0 W/m 14,1 C 18,1 C 4,3 km/h (1 Bft) 97,55 %
19.07.2017 05:00 17,2 C 23,9 C 81 % 1013,1 hPa 0,0 l/m 0,9 km/h (0 Bft) O-NO 0,40 h 0,025 mm 0,0 UV-I 16 W/m 13,8 C 17,2 C 2,1 km/h (1 Bft) 96,27 %
19.07.2017 06:00 18,4 C 23,9 C 77 % 1013,2 hPa 0,0 l/m 2,3 km/h (1 Bft) SO 0,70 h 0,025 mm 0,0 UV-I 100 W/m 14,2 C 18,4 C 4,4 km/h (1 Bft) 95,22 %
19.07.2017 07:00 19,5 C 23,9 C 74 % 1013,3 hPa 0,0 l/m 2,7 km/h (1 Bft) SW 0,00 h 0,077 mm 0,0 UV-I 97 W/m 14,8 C 19,5 C 4,4 km/h (1 Bft) 96,33 %
19.07.2017 08:00 19,8 C 23,9 C 74 % 1013,7 hPa 0,0 l/m 0,5 km/h (0 Bft) W-SW 0,00 h 0,076 mm 0,7 UV-I 124 W/m 15,1 C 19,8 C 2,0 km/h (1 Bft) 97,70 %
19.07.2017 09:00 21,6 C 24,0 C 67 % 1013,8 hPa 0,0 l/m 1,4 km/h (1 Bft) S-SW 0,40 h 0,076 mm 2,1 UV-I 397 W/m 15,1 C 21,6 C 3,2 km/h (1 Bft) 96,00 %
19.07.2017 10:00 25,1 C 24,4 C 53 % 1013,6 hPa 0,0 l/m 4,5 km/h (1 Bft) SW 1,00 h 0,254 mm 3,9 UV-I 724 W/m 14,7 C 25,1 C 8,4 km/h (2 Bft) 96,35 %
19.07.2017 11:00 27,4 C 24,4 C 44 % 1013,1 hPa 0,0 l/m 3,7 km/h (1 Bft) S-SO 0,93 h 0,508 mm 5,2 UV-I 814 W/m 14,0 C 27,4 C 7,4 km/h (2 Bft) 96,43 %
19.07.2017 12:00 28,9 C 24,9 C 39 % 1012,6 hPa 0,0 l/m 4,4 km/h (1 Bft) S-SW 1,00 h 0,559 mm 5,9 UV-I 898 W/m 13,4 C 28,8 C 8,8 km/h (2 Bft) 97,30 %
19.07.2017 13:00 29,9 C 25,2 C 35 % 1012,0 hPa 0,0 l/m 8,5 km/h (2 Bft) W-SW 0,93 h 0,635 mm 5,6 UV-I 791 W/m 12,6 C 29,7 C 15,6 km/h (3 Bft) 94,79 %
19.07.2017 14:00 30,8 C 25,6 C 32 % 1011,6 hPa 0,0 l/m 7,4 km/h (2 Bft) W-SW 0,97 h 0,609 mm 5,1 UV-I 765 W/m 12,3 C 30,7 C 13,8 km/h (3 Bft) 97,21 %
19.07.2017 15:00 31,9 C 25,9 C 30 % 1010,9 hPa 0,0 l/m 9,8 km/h (2 Bft) SW 1,00 h 0,610 mm 4,2 UV-I 747 W/m 12,1 C 31,7 C 16,9 km/h (3 Bft) 96,39 %
19.07.2017 16:00 32,1 C 26,1 C 29 % 1010,3 hPa 0,0 l/m 6,8 km/h (2 Bft) W-SW 0,97 h 0,635 mm 2,9 UV-I 650 W/m 11,8 C 32,1 C 12,6 km/h (3 Bft) 95,54 %
19.07.2017 17:00 32,0 C 26,1 C 30 % 1009,9 hPa 0,0 l/m 3,8 km/h (1 Bft) NW 0,80 h 0,533 mm 1,5 UV-I 420 W/m 12,1 C 32,0 C 7,9 km/h (2 Bft) 96,02 %
19.07.2017 18:00 31,2 C 26,1 C 31 % 1010,0 hPa 0,0 l/m 3,5 km/h (1 Bft) NW 0,43 h 0,331 mm 0,6 UV-I 208 W/m 12,2 C 31,1 C 6,4 km/h (2 Bft) 96,08 %
19.07.2017 19:00 26,7 C 26,1 C 43 % 1010,5 hPa 0,0 l/m 21,4 km/h (4 Bft) O-NO 1,00 h 0,203 mm 0,0 UV-I 156 W/m 13,1 C 24,8 C 31,2 km/h (5 Bft) 95,48 %
19.07.2017 20:00 23,9 C 26,0 C 52 % 1010,2 hPa 0,0 l/m 12,2 km/h (2 Bft) O-NO 0,37 h 0,305 mm 0,0 UV-I 31 W/m 13,4 C 22,6 C 18,1 km/h (3 Bft) 95,55 %
19.07.2017 21:00 21,8 C 25,6 C 62 % 1010,0 hPa 0,0 l/m 5,3 km/h (1 Bft) NO 0,00 h 0,101 mm 0,0 UV-I 5 W/m 14,1 C 21,8 C 7,3 km/h (2 Bft) 96,62 %
19.07.2017 22:00 20,1 C 25,6 C 68 % 1009,8 hPa 0,0 l/m 5,5 km/h (1 Bft) NO 0,00 h 0,051 mm 0,0 UV-I 0 W/m 13,9 C 20,0 C 7,8 km/h (2 Bft) 96,11 %
19.07.2017 23:00 19,5 C 25,6 C 71 % 1009,8 hPa 0,0 l/m 2,6 km/h (1 Bft) NO 0,00 h 0,025 mm 0,0 UV-I 0 W/m 14,0 C 19,5 C 4,6 km/h (1 Bft) 95,14 %
20.07.2017 00:00 18,2 C 25,3 C 76 % 1010,0 hPa 0,0 l/m 1,9 km/h (1 Bft) NO 0,00 h 0,000 mm 0,0 UV-I 0 W/m 13,9 C 18,2 C 3,8 km/h (1 Bft) 95,79 %
20.07.2017 01:00 17,3 C 25,0 C 80 % 1009,8 hPa 0,0 l/m 2,5 km/h (1 Bft) S-SW 0,00 h 0,025 mm 0,0 UV-I 0 W/m 13,9 C 17,3 C 4,4 km/h (1 Bft) 96,87 %
20.07.2017 02:00 16,8 C 25,0 C 83 % 1009,9 hPa 0,0 l/m 2,7 km/h (1 Bft) S-SW 0,00 h 0,000 mm 0,0 UV-I 0 W/m 13,9 C 16,7 C 4,6 km/h (1 Bft) 94,50 %
20.07.2017 03:00 16,7 C 25,0 C 84 % 1010,5 hPa 0,0 l/m 3,7 km/h (1 Bft) S 0,00 h 0,000 mm 0,0 UV-I 0 W/m 14,0 C 16,5 C 6,9 km/h (2 Bft) 96,18 %
20.07.2017 04:00 16,7 C 24,9 C 84 % 1010,6 hPa 0,0 l/m 1,6 km/h (1 Bft) S 0,00 h 0,000 mm 0,0 UV-I 0 W/m 14,0 C 16,7 C 3,7 km/h (1 Bft) 95,94 %
20.07.2017 05:00 16,4 C 24,4 C 85 % 1010,5 hPa 0,0 l/m 2,6 km/h (1 Bft) S-SO 0,03 h 0,000 mm 0,0 UV-I 13 W/m 13,9 C 16,4 C 5,2 km/h (1 Bft) 96,24 %
20.07.2017 06:00 17,3 C 24,4 C 83 % 1011,2 hPa 0,0 l/m 2,4 km/h (1 Bft) S-SW 0,10 h 0,026 mm 0,0 UV-I 64 W/m 14,5 C 17,3 C 4,5 km/h (1 Bft) 94,38 %
20.07.2017 07:00 19,6 C 24,4 C 77 % 1011,3 hPa 0,0 l/m 4,4 km/h (1 Bft) S-SW 0,47 h 0,051 mm 0,0 UV-I 201 W/m 15,5 C 19,6 C 7,1 km/h (2 Bft) 95,60 %
20.07.2017 08:00 22,0 C 24,4 C 68 % 1011,4 hPa 0,0 l/m 11,1 km/h (2 Bft) W-SW 0,07 h 0,127 mm 1,0 UV-I 204 W/m 15,8 C 20,6 C 18,1 km/h (3 Bft) 96,30 %
20.07.2017 09:00 24,8 C 24,5 C 58 % 1011,0 hPa 0,0 l/m 7,9 km/h (2 Bft) W-SW 1,00 h 0,177 mm 2,5 UV-I 593 W/m 15,8 C 24,3 C 14,0 km/h (3 Bft) 97,51 %
20.07.2017 10:00 27,3 C 25,0 C 46 % 1010,3 hPa 0,0 l/m 4,9 km/h (1 Bft) W 1,00 h 0,432 mm 3,9 UV-I 712 W/m 14,7 C 27,2 C 9,9 km/h (2 Bft) 94,39 %
20.07.2017 11:00 28,5 C 25,0 C 42 % 1010,0 hPa 0,0 l/m 9,0 km/h (2 Bft) S-SW 1,00 h 0,508 mm 5,2 UV-I 800 W/m 14,3 C 28,1 C 16,0 km/h (3 Bft) 97,41 %
20.07.2017 12:00 29,1 C 25,4 C 41 % 1009,5 hPa 0,0 l/m 9,1 km/h (2 Bft) SW 0,97 h 0,610 mm 5,1 UV-I 696 W/m 14,6 C 28,8 C 16,4 km/h (3 Bft) 96,76 %
20.07.2017 13:00 29,9 C 25,6 C 40 % 1009,0 hPa 0,0 l/m 9,7 km/h (2 Bft) S-SW 1,00 h 0,533 mm 5,4 UV-I 751 W/m 14,7 C 29,6 C 16,9 km/h (3 Bft) 97,51 %
20.07.2017 14:00 31,1 C 26,0 C 36 % 1008,3 hPa 0,0 l/m 7,6 km/h (2 Bft) SW 1,00 h 0,610 mm 5,4 UV-I 822 W/m 14,0 C 31,0 C 13,3 km/h (3 Bft) 94,62 %
20.07.2017 15:00 31,2 C 26,1 C 36 % 1007,7 hPa 0,0 l/m 6,6 km/h (2 Bft) SW 0,93 h 0,635 mm 3,5 UV-I 607 W/m 14,2 C 31,1 C 12,0 km/h (2 Bft) 97,71 %
20.07.2017 16:00 31,4 C 26,1 C 36 % 1007,2 hPa 0,0 l/m 5,0 km/h (1 Bft) W-NW 0,97 h 0,482 mm 2,6 UV-I 534 W/m 14,6 C 31,4 C 10,0 km/h (2 Bft) 96,51 %
20.07.2017 17:00 30,2 C 26,4 C 39 % 1007,0 hPa 0,0 l/m 3,2 km/h (1 Bft) NW 0,27 h 0,432 mm 1,1 UV-I 201 W/m 14,6 C 30,2 C 7,4 km/h (2 Bft) 95,94 %
20.07.2017 18:00 22,5 C 26,1 C 68 % 1009,6 hPa 28,8 l/m 27,0 km/h (4 Bft) W-SW 0,00 h 0,178 mm 0,0 UV-I 9 W/m 15,7 C 18,4 C 42,3 km/h (6 Bft) 96,44 %
20.07.2017 19:00 17,0 C 25,9 C 93 % 1012,4 hPa 8,4 l/m 20,4 km/h (4 Bft) W-SW 0,00 h 0,152 mm 0,0 UV-I 5 W/m 15,8 C 12,3 C 31,6 km/h (5 Bft) 98,07 %
20.07.2017 20:00 16,8 C 25,6 C 95 % 1013,0 hPa 16,0 l/m 12,6 km/h (3 Bft) W-SW 0,00 h 0,026 mm 0,0 UV-I 4 W/m 15,9 C 14,3 C 19,8 km/h (4 Bft) 95,82 %
20.07.2017 21:00 16,7 C 25,5 C 95 % 1013,5 hPa 1,4 l/m 6,9 km/h (2 Bft) SW 0,00 h 0,000 mm 0,0 UV-I 0 W/m 15,9 C 16,2 C 11,9 km/h (2 Bft) 97,12 %
20.07.2017 22:00 16,7 C 25,0 C 96 % 1013,8 hPa 0,8 l/m 3,6 km/h (1 Bft) W-SW 0,00 h 0,000 mm 0,0 UV-I 0 W/m 16,0 C 16,6 C 6,3 km/h (2 Bft) 96,88 %
20.07.2017 23:00 16,7 C 25,0 C 96 % 1013,7 hPa 0,0 l/m 0,5 km/h (0 Bft) S-SW 0,00 h 0,000 mm 0,0 UV-I 0 W/m 16,1 C 16,7 C 1,1 km/h (0 Bft) 98,64 %
21.07.2017 00:00 16,6 C 25,0 C 96 % 1013,5 hPa 0,0 l/m 0,6 km/h (0 Bft) S-SW 0,00 h 0,000 mm 0,0 UV-I 0 W/m 16,0 C 16,6 C 2,1 km/h (1 Bft) 94,32 %
21.07.2017 01:00 16,4 C 25,0 C 96 % 1013,7 hPa 0,0 l/m 0,7 km/h (0 Bft) S-SW 0,00 h 0,000 mm 0,0 UV-I 0 W/m 15,7 C 16,4 C 1,8 km/h (1 Bft) 97,23 %
21.07.2017 02:00 16,2 C 25,0 C 96 % 1013,7 hPa 0,0 l/m 1,6 km/h (1 Bft) S-SW 0,00 h 0,000 mm 0,0 UV-I 0 W/m 15,6 C 16,2 C 2,9 km/h (1 Bft) 96,88 %
21.07.2017 03:00 16,2 C 24,5 C 97 % 1013,6 hPa 0,0 l/m 4,0 km/h (1 Bft) S-SW 0,00 h 0,000 mm 0,0 UV-I 0 W/m 15,7 C 16,2 C 6,4 km/h (2 Bft) 97,14 %
21.07.2017 04:00 16,0 C 24,4 C 97 % 1013,7 hPa 0,0 l/m 2,0 km/h (1 Bft) SW 0,00 h 0,000 mm 0,0 UV-I 0 W/m 15,5 C 16,0 C 3,9 km/h (1 Bft) 94,76 %
21.07.2017 05:00 15,5 C 24,4 C 97 % 1013,9 hPa 0,2 l/m 1,7 km/h (1 Bft) SW 0,00 h 0,000 mm 0,0 UV-I 9 W/m 15,0 C 15,5 C 3,3 km/h (1 Bft) 97,13 %
21.07.2017 06:00 15,5 C 24,4 C 97 % 1014,0 hPa 0,0 l/m 1,5 km/h (1 Bft) SW 0,80 h 0,000 mm 0,0 UV-I 117 W/m 15,0 C 15,5 C 3,3 km/h (1 Bft) 96,19 %
21.07.2017 07:00 16,5 C 24,4 C 97 % 1014,1 hPa 0,0 l/m 0,6 km/h (0 Bft) SW 0,70 h 0,051 mm 0,6 UV-I 205 W/m 16,0 C 16,5 C 1,8 km/h (1 Bft) 96,97 %
21.07.2017 08:00 18,1 C 24,4 C 97 % 1014,4 hPa 0,0 l/m 1,1 km/h (1 Bft) SW 1,00 h 0,101 mm 1,3 UV-I 420 W/m 17,6 C 18,1 C 2,8 km/h (1 Bft) 95,45 %
21.07.2017 09:00 20,7 C 24,5 C 89 % 1014,4 hPa 0,0 l/m 5,5 km/h (1 Bft) NO 1,00 h 0,229 mm 2,4 UV-I 590 W/m 18,8 C 20,5 C 9,2 km/h (2 Bft) 97,06 %
21.07.2017 10:00 22,6 C 24,9 C 81 % 1014,2 hPa 0,0 l/m 6,0 km/h (2 Bft) NO 1,00 h 0,356 mm 3,6 UV-I 732 W/m 19,1 C 22,4 C 11,0 km/h (2 Bft) 96,82 %
21.07.2017 11:00 23,6 C 25,0 C 74 % 1013,8 hPa 0,0 l/m 8,2 km/h (2 Bft) O-NO 1,00 h 0,431 mm 5,0 UV-I 805 W/m 18,7 C 23,1 C 13,1 km/h (3 Bft) 96,63 %
21.07.2017 12:00 25,0 C 25,2 C 64 % 1013,3 hPa 0,0 l/m 10,4 km/h (2 Bft) NO 1,00 h 0,534 mm 5,8 UV-I 861 W/m 17,8 C 24,1 C 16,8 km/h (3 Bft) 95,40 %
21.07.2017 13:00 26,4 C 25,6 C 57 % 1012,7 hPa 0,0 l/m 13,4 km/h (3 Bft) NO 1,00 h 0,584 mm 6,0 UV-I 862 W/m 17,2 C 25,2 C 20,4 km/h (4 Bft) 97,58 %
21.07.2017 14:00 27,5 C 26,0 C 50 % 1012,1 hPa 0,0 l/m 16,3 km/h (3 Bft) NO 1,00 h 0,635 mm 5,4 UV-I 820 W/m 16,2 C 26,2 C 23,6 km/h (4 Bft) 97,09 %
21.07.2017 15:00 28,1 C 26,1 C 44 % 1011,5 hPa 0,0 l/m 15,9 km/h (3 Bft) NO 0,97 h 0,660 mm 4,3 UV-I 696 W/m 14,8 C 27,0 C 23,3 km/h (4 Bft) 96,18 %
21.07.2017 16:00 28,6 C 26,1 C 40 % 1010,9 hPa 0,0 l/m 15,2 km/h (3 Bft) O-NO 1,00 h 0,610 mm 2,9 UV-I 602 W/m 13,6 C 27,7 C 23,2 km/h (4 Bft) 96,88 %
21.07.2017 17:00 28,4 C 26,1 C 38 % 1010,4 hPa 0,0 l/m 15,1 km/h (3 Bft) O-NO 0,83 h 0,559 mm 1,5 UV-I 364 W/m 12,8 C 27,4 C 21,8 km/h (4 Bft) 97,60 %
21.07.2017 18:00 27,1 C 26,1 C 44 % 1009,8 hPa 0,0 l/m 10,9 km/h (2 Bft) O-NO 0,10 h 0,381 mm 0,7 UV-I 135 W/m 13,7 C 26,4 C 16,8 km/h (3 Bft) 96,65 %
21.07.2017 19:00 25,7 C 26,1 C 51 % 1009,6 hPa 0,0 l/m 5,2 km/h (1 Bft) NO 0,00 h 0,203 mm 0,0 UV-I 62 W/m 14,7 C 25,7 C 8,3 km/h (2 Bft) 95,13 %
21.07.2017 20:00 25,2 C 26,1 C 54 % 1009,6 hPa 0,0 l/m 9,8 km/h (2 Bft) O-NO 0,00 h 0,076 mm 0,0 UV-I 13 W/m 15,1 C 24,4 C 15,2 km/h (3 Bft) 97,62 %
21.07.2017 21:00 24,5 C 26,0 C 56 % 1010,5 hPa 0,0 l/m 5,8 km/h (2 Bft) O-NO 0,00 h 0,076 mm 0,0 UV-I 0 W/m 15,2 C 24,3 C 10,8 km/h (2 Bft) 96,98 %
21.07.2017 22:00 22,3 C 25,6 C 68 % 1011,6 hPa 0,0 l/m 5,8 km/h (2 Bft) W-SW 0,00 h 0,051 mm 0,0 UV-I 0 W/m 15,9 C 22,0 C 11,3 km/h (2 Bft) 97,48 %
21.07.2017 23:00 20,0 C 25,6 C 79 % 1010,7 hPa 0,0 l/m 4,3 km/h (1 Bft) NO 0,00 h 0,026 mm 0,0 UV-I 0 W/m 16,4 C 19,9 C 7,0 km/h (2 Bft) 95,10 %
22.07.2017 00:00 19,6 C 25,6 C 82 % 1010,2 hPa 0,0 l/m 8,1 km/h (2 Bft) O-SO 0,00 h 0,000 mm 0,0 UV-I 0 W/m 16,3 C 18,7 C 12,3 km/h (3 Bft) 98,35 %
22.07.2017 01:00 19,7 C 25,5 C 79 % 1009,5 hPa 0,2 l/m 6,5 km/h (2 Bft) O-SO 0,00 h 0,025 mm 0,0 UV-I 0 W/m 16,0 C 19,4 C 11,2 km/h (2 Bft) 96,84 %
22.07.2017 02:00 19,3 C 25,0 C 80 % 1009,1 hPa 0,0 l/m 4,0 km/h (1 Bft) O-SO 0,00 h 0,026 mm 0,0 UV-I 0 W/m 15,8 C 19,3 C 7,2 km/h (2 Bft) 97,51 %
22.07.2017 03:00 18,0 C 25,0 C 86 % 1008,9 hPa 0,0 l/m 2,1 km/h (1 Bft) N-NO 0,00 h 0,025 mm 0,0 UV-I 0 W/m 15,5 C 18,0 C 3,6 km/h (1 Bft) 95,21 %
22.07.2017 04:00 17,2 C 25,0 C 89 % 1010,0 hPa 0,0 l/m 8,5 km/h (2 Bft) SW 0,00 h 0,000 mm 0,0 UV-I 0 W/m 15,4 C 15,9 C 13,2 km/h (3 Bft) 97,77 %
22.07.2017 05:00 17,2 C 24,8 C 89 % 1011,2 hPa 0,0 l/m 12,5 km/h (3 Bft) SW 0,33 h 0,026 mm 0,0 UV-I 15 W/m 15,4 C 14,7 C 19,5 km/h (3 Bft) 96,58 %
22.07.2017 06:00 18,4 C 24,4 C 85 % 1011,8 hPa 0,0 l/m 11,7 km/h (2 Bft) SW 0,67 h 0,025 mm 0,0 UV-I 85 W/m 15,8 C 16,3 C 18,2 km/h (3 Bft) 96,51 %
22.07.2017 07:00 19,8 C 24,4 C 79 % 1012,2 hPa 0,0 l/m 11,9 km/h (2 Bft) W-SW 0,53 h 0,076 mm 0,6 UV-I 174 W/m 15,9 C 17,8 C 18,2 km/h (3 Bft) 96,20 %
22.07.2017 08:00 21,4 C 24,4 C 71 % 1012,5 hPa 0,0 l/m 13,4 km/h (3 Bft) W-SW 0,93 h 0,153 mm 1,2 UV-I 365 W/m 16,0 C 19,4 C 21,0 km/h (4 Bft) 97,75 %
22.07.2017 09:00 22,6 C 24,8 C 67 % 1012,8 hPa 0,0 l/m 12,0 km/h (2 Bft) W-SW 1,00 h 0,279 mm 2,3 UV-I 543 W/m 16,2 C 21,0 C 20,0 km/h (4 Bft) 96,54 %
22.07.2017 10:00 23,3 C 25,0 C 66 % 1013,0 hPa 0,0 l/m 9,9 km/h (2 Bft) W-SW 0,40 h 0,381 mm 2,2 UV-I 416 W/m 16,7 C 22,3 C 17,4 km/h (3 Bft) 95,51 %
22.07.2017 11:00 22,6 C 25,0 C 69 % 1013,5 hPa 0,0 l/m 10,4 km/h (2 Bft) W-SW 0,00 h 0,305 mm 1,7 UV-I 254 W/m 16,6 C 21,5 C 16,5 km/h (3 Bft) 95,49 %
22.07.2017 12:00 23,6 C 25,0 C 65 % 1013,5 hPa 0,0 l/m 5,5 km/h (1 Bft) W-SW 0,47 h 0,203 mm 3,5 UV-I 483 W/m 16,6 C 23,5 C 10,6 km/h (2 Bft) 98,52 %
22.07.2017 13:00 24,8 C 25,0 C 61 % 1013,4 hPa 0,0 l/m 5,9 km/h (2 Bft) W-SW 0,47 h 0,330 mm 4,5 UV-I 544 W/m 16,7 C 24,6 C 10,9 km/h (2 Bft) 96,94 %
22.07.2017 14:00 26,5 C 25,4 C 55 % 1013,1 hPa 0,0 l/m 7,3 km/h (2 Bft) W 1,00 h 0,407 mm 5,7 UV-I 853 W/m 16,6 C 26,1 C 13,7 km/h (3 Bft) 94,47 %
22.07.2017 15:00 27,2 C 25,6 C 53 % 1012,7 hPa 0,0 l/m 7,2 km/h (2 Bft) W-SW 0,90 h 0,584 mm 4,2 UV-I 720 W/m 16,7 C 27,0 C 13,8 km/h (3 Bft) 96,50 %
22.07.2017 16:00 27,6 C 26,1 C 51 % 1012,4 hPa 0,0 l/m 6,1 km/h (2 Bft) W 0,97 h 0,508 mm 2,9 UV-I 602 W/m 16,4 C 27,4 C 11,5 km/h (2 Bft) 98,96 %
22.07.2017 17:00 27,3 C 26,1 C 52 % 1012,0 hPa 0,0 l/m 4,1 km/h (1 Bft) S-SW 1,00 h 0,432 mm 1,7 UV-I 450 W/m 16,5 C 27,3 C 8,1 km/h (2 Bft) 95,26 %
22.07.2017 18:00 27,5 C 26,1 C 51 % 1011,9 hPa 0,0 l/m 2,1 km/h (1 Bft) S-SO 1,00 h 0,330 mm 0,8 UV-I 278 W/m 16,3 C 27,5 C 4,9 km/h (1 Bft) 95,53 %
22.07.2017 19:00 27,2 C 26,1 C 51 % 1012,1 hPa 0,0 l/m 1,8 km/h (1 Bft) SW 1,00 h 0,203 mm 0,0 UV-I 126 W/m 16,1 C 27,2 C 4,0 km/h (1 Bft) 97,11 %
22.07.2017 20:00 24,8 C 26,1 C 62 % 1012,2 hPa 0,0 l/m 0,8 km/h (0 Bft) S 0,10 h 0,102 mm 0,0 UV-I 25 W/m 17,0 C 24,8 C 1,6 km/h (1 Bft) 97,08 %
22.07.2017 21:00 22,0 C 26,1 C 73 % 1012,5 hPa 0,0 l/m 1,1 km/h (0 Bft) S 0,00 h 0,025 mm 0,0 UV-I 5 W/m 16,8 C 22,0 C 1,5 km/h (1 Bft) 96,03 %
22.07.2017 22:00 20,9 C 26,0 C 77 % 1012,6 hPa 0,0 l/m 1,2 km/h (1 Bft) S 0,00 h 0,025 mm 0,0 UV-I 0 W/m 16,6 C 20,9 C 2,5 km/h (1 Bft) 96,54 %
22.07.2017 23:00 20,1 C 25,6 C 81 % 1012,8 hPa 0,0 l/m 2,0 km/h (1 Bft) S 0,00 h 0,000 mm 0,0 UV-I 0 W/m 16,7 C 20,1 C 3,5 km/h (1 Bft) 97,78 %
23.07.2017 00:00 20,3 C 25,6 C 81 % 1012,5 hPa 0,0 l/m 2,0 km/h (1 Bft) S 0,00 h 0,000 mm 0,0 UV-I 0 W/m 16,8 C 20,3 C 4,1 km/h (1 Bft) 93,01 %
23.07.2017 01:00 19,5 C 25,6 C 84 % 1012,1 hPa 0,0 l/m 2,1 km/h (1 Bft) S 0,00 h 0,000 mm 0,0 UV-I 0 W/m 16,7 C 19,5 C 3,8 km/h (1 Bft) 95,45 %
23.07.2017 02:00 19,3 C 25,6 C 86 % 1012,0 hPa 0,0 l/m 1,4 km/h (1 Bft) NO 0,00 h 0,000 mm 0,0 UV-I 0 W/m 16,9 C 19,3 C 2,8 km/h (1 Bft) 97,15 %
23.07.2017 03:00 18,9 C 25,4 C 88 % 1011,8 hPa 0,0 l/m 2,8 km/h (1 Bft) NO 0,00 h 0,000 mm 0,0 UV-I 0 W/m 16,9 C 18,9 C 4,5 km/h (1 Bft) 97,39 %
23.07.2017 04:00 18,8 C 25,0 C 90 % 1011,6 hPa 0,0 l/m 3,2 km/h (1 Bft) NO 0,00 h 0,000 mm 0,0 UV-I 0 W/m 17,0 C 18,6 C 5,6 km/h (1 Bft) 95,25 %
23.07.2017 05:00 18,7 C 25,0 C 91 % 1013,4 hPa 0,0 l/m 9,8 km/h (2 Bft) W-SW 0,00 h 0,000 mm 0,0 UV-I 9 W/m 17,1 C 17,1 C 16,1 km/h (3 Bft) 96,22 %
23.07.2017 06:00 18,3 C 25,0 C 87 % 1015,1 hPa 2,8 l/m 16,8 km/h (3 Bft) W-SW 0,00 h 0,025 mm 0,0 UV-I 12 W/m 16,1 C 14,8 C 25,7 km/h (4 Bft) 96,86 %
23.07.2017 07:00 17,0 C 25,0 C 94 % 1015,2 hPa 2,8 l/m 8,1 km/h (2 Bft) W 0,00 h 0,026 mm 0,5 UV-I 43 W/m 16,1 C 16,0 C 13,1 km/h (3 Bft) 98,27 %
23.07.2017 08:00 17,7 C 24,9 C 94 % 1015,3 hPa 0,0 l/m 9,1 km/h (2 Bft) SW 0,00 h 0,025 mm 0,6 UV-I 152 W/m 16,6 C 16,5 C 14,4 km/h (3 Bft) 96,00 %
23.07.2017 09:00 18,7 C 24,8 C 88 % 1015,1 hPa 0,0 l/m 8,5 km/h (2 Bft) W-SW 0,30 h 0,102 mm 1,6 UV-I 290 W/m 16,8 C 17,8 C 14,1 km/h (3 Bft) 95,65 %
23.07.2017 10:00 20,4 C 25,0 C 81 % 1014,9 hPa 0,0 l/m 7,3 km/h (2 Bft) W-SW 0,78 h 0,203 mm 3,3 UV-I 632 W/m 16,9 C 19,8 C 13,3 km/h (3 Bft) 96,64 %
23.07.2017 11:00 21,7 C 25,0 C 75 % 1014,9 hPa 0,0 l/m 8,2 km/h (2 Bft) W-SW 0,98 h 0,381 mm 4,7 UV-I 762 W/m 17,1 C 21,1 C 14,0 km/h (3 Bft) 97,82 %
23.07.2017 12:00 23,6 C 25,4 C 68 % 1014,8 hPa 0,0 l/m 7,2 km/h (2 Bft) S-SW 1,00 h 0,483 mm 5,4 UV-I 822 W/m 17,4 C 23,2 C 12,6 km/h (3 Bft) 96,52 %
23.07.2017 13:00 24,3 C 25,6 C 64 % 1014,8 hPa 0,0 l/m 6,6 km/h (2 Bft) W-SW 0,60 h 0,533 mm 4,5 UV-I 614 W/m 17,0 C 24,0 C 11,8 km/h (2 Bft) 96,01 %
23.07.2017 14:00 25,1 C 25,9 C 59 % 1014,3 hPa 0,0 l/m 5,6 km/h (1 Bft) W-SW 0,67 h 0,432 mm 4,8 UV-I 651 W/m 16,5 C 25,0 C 11,9 km/h (2 Bft) 96,50 %
23.07.2017 15:00 25,8 C 26,1 C 56 % 1013,7 hPa 0,0 l/m 6,2 km/h (2 Bft) W 0,93 h 0,482 mm 3,7 UV-I 633 W/m 16,3 C 25,6 C 11,6 km/h (2 Bft) 97,95 %
23.07.2017 16:00 26,0 C 26,1 C 55 % 1013,2 hPa 0,0 l/m 4,7 km/h (1 Bft) W-NW 1,00 h 0,432 mm 2,6 UV-I 528 W/m 16,2 C 25,9 C 10,0 km/h (2 Bft) 96,38 %
23.07.2017 17:00 25,3 C 26,1 C 56 % 1012,9 hPa 0,0 l/m 3,4 km/h (1 Bft) NW 0,33 h 0,356 mm 1,3 UV-I 258 W/m 15,9 C 25,3 C 9,0 km/h (2 Bft) 96,26 %
23.07.2017 18:00 24,3 C 26,1 C 59 % 1012,9 hPa 0,0 l/m 2,4 km/h (1 Bft) W-NW 0,13 h 0,203 mm 0,8 UV-I 135 W/m 15,9 C 24,3 C 6,3 km/h (2 Bft) 96,94 %
23.07.2017 19:00 23,3 C 26,1 C 62 % 1012,8 hPa 0,0 l/m 1,6 km/h (1 Bft) W-NW 0,00 h 0,102 mm 0,0 UV-I 24 W/m 15,7 C 23,3 C 4,4 km/h (1 Bft) 97,53 %
23.07.2017 20:00 20,0 C 26,1 C 85 % 1013,4 hPa 2,8 l/m 5,2 km/h (1 Bft) SW 0,50 h 0,025 mm 0,0 UV-I 33 W/m 17,2 C 19,8 C 8,9 km/h (2 Bft) 95,57 %
23.07.2017 21:00 19,2 C 26,1 C 89 % 1013,9 hPa 0,0 l/m 6,2 km/h (2 Bft) S-SW 0,00 h 0,051 mm 0,0 UV-I 0 W/m 17,3 C 18,9 C 10,5 km/h (2 Bft) 96,58 %
23.07.2017 22:00 18,8 C 26,1 C 89 % 1013,8 hPa 0,0 l/m 4,8 km/h (1 Bft) S 0,00 h 0,025 mm 0,0 UV-I 0 W/m 17,0 C 18,7 C 8,3 km/h (2 Bft) 97,34 %
23.07.2017 23:00 18,6 C 25,7 C 90 % 1013,8 hPa 0,0 l/m 6,0 km/h (2 Bft) SW 0,00 h 0,000 mm 0,0 UV-I 0 W/m 17,0 C 18,4 C 9,0 km/h (2 Bft) 97,93 %
Min-Datum _ 17.07.17 17.07.17 19.07.17 20.07.17 - 17.07.17 - - - - - 17.07.17 20.07.17 17.07.17 23.07.17
_ Min-Zeit 05:36 02:14 15:48 17:30 - 04:30 - - - - - 05:48 18:50 04:30 00:02
Minimum _ 11,2 C 21,1 C 27 % 1006,8 hPa - 0,0 km/h (0 Bft) - - - - - 8,7 C 10,8 C 0,0 km/h (0 Bft) 16,67 %
Max-Datum _ 19.07.17 20.07.17 21.07.17 17.07.17 20.07.17 20.07.17 - 17.07.17 21.07.17 20.07.17 22.07.17 21.07.17 19.07.17 20.07.17 17.07.17
_ Max-Zeit 17:50 17:08 07:58 00:00 18:34 18:32 - 13:49 15:02 12:38 12:56 10:34 17:50 18:14 00:06
Maximum _ 32,6 C 26,7 C 98 % 1021,8 hPa 28,8 l/m 46,2 km/h
W-SW (6 Bft)
- 0,05 h 0,660 mm 6,8 UV-I 1111 W/m 19,6 C 32,6 C 77,2 km/h
W-SW (9 Bft)
100,00 %
Durchschnitt _ 22,1 C 24,6 C 66 % 1013,8 hPa #64,2 l/m 5,4 km/h (1 Bft) SW #75:26 h #35,864 mm 3,2 UV-I 409 W/m 14,6 C 21,8 C 9,4 km/h (2 Bft) 96,42 %